createdAt,value
2022-12-22T00:02:11.965Z,100664.69
2022-12-22T00:05:32.516Z,100667.53
2022-12-22T00:08:53.085Z,100679.50
2022-12-22T00:12:13.470Z,100662.00
2022-12-22T00:15:34.840Z,100669.31
2022-12-22T00:18:55.550Z,100668.22
2022-12-22T00:22:17.044Z,100664.53
2022-12-22T00:25:37.334Z,100658.44
2022-12-22T00:28:57.567Z,100643.06
2022-12-22T00:32:18.170Z,100650.94
2022-12-22T00:35:40.039Z,100637.63
2022-12-22T00:39:00.797Z,100643.91
2022-12-22T00:42:21.399Z,100650.97
2022-12-22T00:45:41.787Z,100649.97
2022-12-22T00:49:02.421Z,100651.50
2022-12-22T00:52:22.650Z,100652.03
2022-12-22T00:55:44.712Z,100647.19
2022-12-22T00:59:05.282Z,100654.22
2022-12-22T01:02:25.881Z,100641.00
2022-12-22T01:05:46.710Z,100633.66
2022-12-22T01:09:07.472Z,100645.41
2022-12-22T01:12:29.609Z,100637.88
2022-12-22T01:15:50.463Z,100644.25
2022-12-22T01:19:10.843Z,100630.72
2022-12-22T01:22:31.848Z,100630.81
2022-12-22T01:25:52.563Z,100622.00
2022-12-22T01:29:12.945Z,100623.44
2022-12-22T01:32:33.331Z,100622.63
2022-12-22T01:35:54.040Z,100631.03
2022-12-22T01:39:14.288Z,100629.75
2022-12-22T01:42:34.899Z,100620.91
2022-12-22T01:45:55.996Z,100609.31
2022-12-22T01:49:16.695Z,100602.53
2022-12-22T01:52:38.388Z,100600.25
2022-12-22T01:55:58.820Z,100590.94
2022-12-22T01:59:19.784Z,100602.09
2022-12-22T02:02:40.360Z,100600.38
2022-12-22T02:06:04.334Z,100605.41
2022-12-22T02:09:36.078Z,100614.50
2022-12-22T02:13:02.986Z,100608.91
2022-12-22T02:16:58.805Z,100599.59
2022-12-22T02:20:19.339Z,100593.94
2022-12-22T02:23:45.608Z,100596.87
2022-12-22T02:27:09.882Z,100599.91
2022-12-22T02:30:30.591Z,100584.66
2022-12-22T02:33:52.425Z,100593.84
2022-12-22T02:37:15.860Z,100594.50
2022-12-22T02:40:46.713Z,100585.97
2022-12-22T02:44:22.462Z,100597.53
2022-12-22T02:48:01.884Z,100585.47
2022-12-22T02:51:30.232Z,100587.69
2022-12-22T02:54:50.687Z,100580.84
2022-12-22T02:58:11.615Z,100583.78
2022-12-22T03:01:32.324Z,100580.03
2022-12-22T03:04:53.013Z,100579.25
2022-12-22T03:08:13.714Z,100582.97
2022-12-22T03:11:34.074Z,100589.81
2022-12-22T03:14:54.405Z,100589.03
2022-12-22T03:18:19.904Z,100582.63
2022-12-22T03:21:40.283Z,100582.06
2022-12-22T03:25:00.887Z,100577.97
2022-12-22T03:28:03.577Z,100571.91
2022-12-22T03:31:06.186Z,100563.91
2022-12-22T03:34:08.141Z,100570.72
2022-12-22T03:37:10.114Z,100565.25
2022-12-22T03:40:12.077Z,100567.31
2022-12-22T03:43:32.818Z,100553.34
2022-12-22T03:46:34.764Z,100547.62
2022-12-22T03:49:36.650Z,100538.19
2022-12-22T03:52:38.524Z,100543.66
2022-12-22T03:55:40.374Z,100530.00
2022-12-22T03:58:42.237Z,100539.69
2022-12-22T04:01:45.575Z,100548.25
2022-12-22T04:04:47.555Z,100548.25
2022-12-22T04:07:49.355Z,100551.53
2022-12-22T04:11:09.706Z,100554.63
2022-12-22T04:14:11.654Z,100554.44
2022-12-22T04:17:13.537Z,100565.81
2022-12-22T04:20:15.459Z,100573.16
2022-12-22T04:23:17.420Z,100571.50
2022-12-22T04:26:19.852Z,100558.19
2022-12-22T04:29:21.794Z,100563.50
2022-12-22T04:32:23.620Z,100563.28
2022-12-22T04:35:25.498Z,100565.59
2022-12-22T04:38:27.387Z,100572.66
2022-12-22T04:41:29.330Z,100556.38
2022-12-22T04:44:31.210Z,100565.09
2022-12-22T04:47:33.031Z,100545.13
2022-12-22T04:50:34.938Z,100552.69
2022-12-22T04:53:36.800Z,100555.72
2022-12-22T04:56:38.752Z,100554.72
2022-12-22T04:59:40.716Z,100548.84
2022-12-22T05:02:42.733Z,100535.94
2022-12-22T05:05:44.652Z,100543.62
2022-12-22T05:08:46.519Z,100545.41
2022-12-22T05:11:48.360Z,100544.38
2022-12-22T05:14:50.242Z,100547.69
2022-12-22T05:17:52.339Z,100545.59
2022-12-22T05:20:54.211Z,100549.88
2022-12-22T05:23:56.047Z,100536.09
2022-12-22T05:26:57.884Z,100539.44
2022-12-22T05:29:59.779Z,100546.34
2022-12-22T05:33:01.644Z,100549.81
2022-12-22T05:36:03.707Z,100548.59
2022-12-22T05:39:05.578Z,100546.66
2022-12-22T05:42:07.472Z,100557.88
2022-12-22T05:45:09.485Z,100542.16
2022-12-22T05:48:11.484Z,100553.00
2022-12-22T05:51:13.309Z,100536.09
2022-12-22T05:54:15.244Z,100539.88
2022-12-22T05:57:17.171Z,100533.28
2022-12-22T06:00:19.354Z,100530.84
2022-12-22T06:03:23.739Z,100540.06
2022-12-22T06:06:25.765Z,100541.16
2022-12-22T06:09:27.629Z,100535.75
2022-12-22T06:12:29.708Z,100551.53
2022-12-22T06:15:31.776Z,100546.47
2022-12-22T06:18:34.003Z,100542.19
2022-12-22T06:21:35.855Z,100546.75
2022-12-22T06:24:37.743Z,100558.22
2022-12-22T06:27:39.605Z,100545.06
2022-12-22T06:30:41.475Z,100561.31
2022-12-22T06:33:43.435Z,100566.25
2022-12-22T06:36:45.794Z,100569.63
2022-12-22T06:39:47.865Z,100564.66
2022-12-22T06:43:09.639Z,100561.19
2022-12-22T06:46:12.216Z,100564.75
2022-12-22T06:49:14.145Z,100561.72
2022-12-22T06:52:15.975Z,100562.59
2022-12-22T06:55:17.982Z,100571.81
2022-12-22T06:58:19.920Z,100571.94
2022-12-22T07:01:21.890Z,100573.38
2022-12-22T07:04:23.860Z,100584.06
2022-12-22T07:07:25.776Z,100578.97
2022-12-22T07:10:46.367Z,100566.37
2022-12-22T07:13:48.275Z,100565.66
2022-12-22T07:16:50.269Z,100570.72
2022-12-22T07:19:52.244Z,100575.84
2022-12-22T07:22:54.125Z,100561.97
2022-12-22T07:25:56.081Z,100562.37
2022-12-22T07:28:58.068Z,100568.50
2022-12-22T07:32:00.124Z,100565.91
2022-12-22T07:35:05.629Z,100562.56
2022-12-22T07:38:08.163Z,100557.59
2022-12-22T07:41:29.438Z,100564.69
2022-12-22T07:44:31.550Z,100567.41
2022-12-22T07:47:35.627Z,100570.59
2022-12-22T07:50:37.853Z,100567.00
2022-12-22T07:53:40.116Z,100575.91
2022-12-22T07:56:42.646Z,100591.91
2022-12-22T07:59:44.623Z,100597.97
2022-12-22T08:02:50.563Z,100581.12
2022-12-22T08:05:53.181Z,100567.16
2022-12-22T08:08:55.432Z,100568.03
2022-12-22T08:11:57.382Z,100571.06
2022-12-22T08:15:00.029Z,100579.22
2022-12-22T08:18:02.197Z,100572.87
2022-12-22T08:21:04.408Z,100577.66
2022-12-22T08:24:06.622Z,100579.91
2022-12-22T08:27:10.915Z,100580.28
2022-12-22T08:30:13.066Z,100585.34
2022-12-22T08:33:15.067Z,100567.44
2022-12-22T08:36:17.672Z,100582.03
2022-12-22T08:39:20.267Z,100570.13
2022-12-22T08:42:22.238Z,100567.47
2022-12-22T08:45:24.138Z,100563.78
2022-12-22T08:48:26.108Z,100570.19
2022-12-22T08:51:28.019Z,100576.19
2022-12-22T08:54:30.094Z,100590.38
2022-12-22T08:57:32.057Z,100589.28
2022-12-22T09:00:33.932Z,100571.78
2022-12-22T09:03:36.003Z,100573.69
2022-12-22T09:06:41.241Z,100575.59
2022-12-22T09:09:43.883Z,100576.16
2022-12-22T09:12:48.222Z,100556.69
2022-12-22T09:15:50.077Z,100560.56
2022-12-22T09:18:52.977Z,100561.75
2022-12-22T09:21:55.284Z,100553.06
2022-12-22T09:24:57.510Z,100538.78
2022-12-22T09:27:59.486Z,100530.41
2022-12-22T09:31:01.364Z,100544.97
2022-12-22T09:34:03.390Z,100542.06
2022-12-22T09:37:06.572Z,100518.00
2022-12-22T09:40:09.063Z,100518.81
2022-12-22T09:43:13.626Z,100528.22
2022-12-22T09:46:21.014Z,100537.81
2022-12-22T09:49:23.277Z,100530.38
2022-12-22T09:52:34.336Z,100529.78
2022-12-22T09:55:41.062Z,100526.19
2022-12-22T09:58:43.128Z,100531.28
2022-12-22T10:02:04.737Z,100516.75
2022-12-22T10:05:10.957Z,100513.91
2022-12-22T10:08:14.746Z,100509.25
2022-12-22T10:11:17.625Z,100505.97
2022-12-22T10:14:19.703Z,100524.97
2022-12-22T10:17:34.121Z,100517.78
2022-12-22T10:20:38.432Z,100507.53
2022-12-22T10:23:41.336Z,100493.34
2022-12-22T10:26:43.321Z,100491.00
2022-12-22T10:29:45.169Z,100487.97
2022-12-22T10:33:03.774Z,100484.22
2022-12-22T10:36:06.007Z,100484.19
2022-12-22T10:39:09.128Z,100492.84
2022-12-22T10:42:13.648Z,100479.97
2022-12-22T10:45:19.795Z,100460.41
2022-12-22T10:48:28.719Z,100471.94
2022-12-22T10:51:30.743Z,100459.69
2022-12-22T10:54:33.644Z,100450.22
2022-12-22T10:57:35.567Z,100441.63
2022-12-22T11:00:38.237Z,100433.06
2022-12-22T11:03:40.216Z,100446.22
2022-12-22T11:06:43.459Z,100457.41
2022-12-22T11:09:45.381Z,100454.66
2022-12-22T11:12:54.922Z,100451.94
2022-12-22T11:16:03.363Z,100454.09
2022-12-22T11:19:08.348Z,100458.84
2022-12-22T11:22:17.813Z,100454.41
2022-12-22T11:25:43.045Z,100447.59
2022-12-22T11:28:54.047Z,100450.16
2022-12-22T11:32:17.030Z,100433.78
2022-12-22T11:35:28.147Z,100433.87
2022-12-22T11:38:40.484Z,100430.69
2022-12-22T11:42:00.961Z,100429.19
2022-12-22T11:45:11.956Z,100420.25
2022-12-22T11:48:17.045Z,100442.12
2022-12-22T11:51:37.907Z,100436.53
2022-12-22T11:54:58.206Z,100446.09
2022-12-22T11:58:03.243Z,100444.06
2022-12-22T12:01:26.282Z,100447.16
2022-12-22T12:04:31.543Z,100437.59
2022-12-22T12:07:39.562Z,100419.84
2022-12-22T12:10:45.645Z,100433.87
2022-12-22T12:13:54.555Z,100436.50
2022-12-22T12:16:59.572Z,100433.22
2022-12-22T12:20:20.725Z,100435.00
2022-12-22T12:23:34.899Z,100427.59
2022-12-22T12:26:55.562Z,100429.06
2022-12-22T12:30:35.825Z,100405.72
2022-12-22T12:33:35.611Z,100407.50
2022-12-22T12:36:42.102Z,100421.47
2022-12-22T12:39:50.360Z,100444.75
2022-12-22T12:42:52.671Z,100473.31
2022-12-22T12:45:55.439Z,100475.22
2022-12-22T12:48:57.555Z,100463.25
2022-12-22T12:52:01.791Z,100459.38
2022-12-22T12:55:31.400Z,100458.34
2022-12-22T12:58:39.928Z,100456.75
2022-12-22T13:01:42.157Z,100454.88
2022-12-22T13:05:02.668Z,100438.88
2022-12-22T13:08:04.518Z,100435.88
2022-12-22T13:11:06.502Z,100430.66
2022-12-22T13:14:08.545Z,100438.44
2022-12-22T13:17:37.227Z,100428.00
2022-12-22T13:20:39.360Z,100426.00
2022-12-22T13:24:24.142Z,100431.56
2022-12-22T13:27:21.591Z,100393.78
2022-12-22T13:30:23.527Z,100389.81
2022-12-22T13:33:25.985Z,100412.41
2022-12-22T13:36:28.495Z,100407.72
2022-12-22T13:39:30.696Z,100408.88
2022-12-22T13:42:35.385Z,100382.75
2022-12-22T13:45:41.923Z,100369.31
2022-12-22T13:48:45.636Z,100360.19
2022-12-22T13:51:48.051Z,100376.91
2022-12-22T13:54:49.965Z,100356.47
2022-12-22T13:57:58.176Z,100364.34
2022-12-22T14:01:05.068Z,100361.00
2022-12-22T14:04:12.676Z,100386.84
2022-12-22T14:07:19.363Z,100338.41
2022-12-22T14:10:26.113Z,100346.72
2022-12-22T14:13:28.774Z,100358.13
2022-12-22T14:16:30.686Z,100384.53
2022-12-22T14:19:33.524Z,100366.91
2022-12-22T14:22:39.793Z,100343.16
2022-12-22T14:25:42.264Z,100371.28
2022-12-22T14:28:50.424Z,100372.19
2022-12-22T14:32:00.115Z,100350.38
2022-12-22T14:35:02.682Z,100358.69
2022-12-22T14:38:13.494Z,100365.19
2022-12-22T14:41:40.279Z,100383.53
2022-12-22T14:44:45.615Z,100396.69
2022-12-22T14:47:47.497Z,100408.19
2022-12-22T14:50:49.738Z,100403.34
2022-12-22T14:53:55.987Z,100414.00
2022-12-22T14:57:00.788Z,100412.09
2022-12-22T15:00:07.571Z,100408.66
2022-12-22T15:03:25.067Z,100402.87
2022-12-22T15:06:27.029Z,100393.03
2022-12-22T15:12:52.124Z,100382.63
2022-12-22T15:15:54.024Z,100380.50
2022-12-22T15:18:55.959Z,100386.37
2022-12-22T15:21:58.076Z,100375.44
2022-12-22T15:25:00.080Z,100377.62
2022-12-22T15:28:01.973Z,100363.97
2022-12-22T15:31:04.196Z,100368.25
2022-12-22T15:34:10.445Z,100361.66
2022-12-22T15:37:12.868Z,100356.91
2022-12-22T15:40:19.308Z,100355.78
2022-12-22T15:46:43.777Z,100339.97
2022-12-22T15:49:45.674Z,100344.09
2022-12-22T15:52:49.252Z,100312.25
2022-12-22T15:55:52.071Z,100316.47
2022-12-22T15:58:53.981Z,100328.22
2022-12-22T16:02:01.426Z,100318.91
2022-12-22T16:05:04.316Z,100314.16
2022-12-22T16:08:18.133Z,100322.19
2022-12-22T16:11:20.456Z,100326.75
2022-12-22T16:14:22.380Z,100326.03
2022-12-22T16:17:25.423Z,100325.09
2022-12-22T16:20:32.966Z,100336.66
2022-12-22T16:23:37.617Z,100343.03
2022-12-22T16:26:39.532Z,100335.87
2022-12-22T16:29:43.504Z,100355.81
2022-12-22T16:32:46.094Z,100375.50
2022-12-22T16:35:48.058Z,100377.28
2022-12-22T16:38:49.968Z,100377.50
2022-12-22T16:41:59.840Z,100365.97
2022-12-22T16:45:04.392Z,100366.56
2022-12-22T16:48:07.445Z,100371.97
2022-12-22T16:51:12.289Z,100354.88
2022-12-22T16:54:14.656Z,100365.31
2022-12-22T16:57:16.595Z,100365.87
2022-12-22T17:00:22.871Z,100363.53
2022-12-22T17:03:25.415Z,100358.87
2022-12-22T17:06:27.412Z,100352.00
2022-12-22T17:09:31.137Z,100353.78
2022-12-22T17:12:33.557Z,100364.00
2022-12-22T17:15:35.516Z,100365.22
2022-12-22T17:18:37.481Z,100344.72
2022-12-22T17:21:39.347Z,100340.44
2022-12-22T17:24:41.968Z,100358.69
2022-12-22T17:27:43.865Z,100350.44
2022-12-22T17:30:45.960Z,100344.81
2022-12-22T17:33:47.975Z,100339.69
2022-12-22T17:36:49.948Z,100343.88
2022-12-22T17:40:00.366Z,100345.37
2022-12-22T17:43:02.444Z,100350.47
2022-12-22T17:46:05.650Z,100344.63
2022-12-22T17:49:07.638Z,100350.59
2022-12-22T17:52:16.049Z,100347.25
2022-12-22T17:55:49.873Z,100350.84
2022-12-22T17:58:44.564Z,100355.72
2022-12-22T18:01:46.545Z,100345.28
2022-12-22T18:04:48.751Z,100340.16
2022-12-22T18:07:50.889Z,100342.78
2022-12-22T18:10:52.938Z,100346.50
2022-12-22T18:13:54.890Z,100342.59
2022-12-22T18:16:56.832Z,100347.75
2022-12-22T18:19:58.755Z,100354.59
2022-12-22T18:23:02.281Z,100349.84
2022-12-22T18:26:05.232Z,100350.25
2022-12-22T18:29:09.972Z,100345.25
2022-12-22T18:32:11.911Z,100344.31
2022-12-22T18:35:14.042Z,100347.03
2022-12-22T18:38:35.058Z,100347.12
2022-12-22T18:41:37.070Z,100345.66
2022-12-22T18:44:39.035Z,100338.34
2022-12-22T18:47:40.902Z,100331.69
2022-12-22T18:50:42.877Z,100315.28
2022-12-22T18:53:44.768Z,100306.25
2022-12-22T18:56:47.626Z,100300.63
2022-12-22T18:59:49.771Z,100298.37
2022-12-22T19:02:52.391Z,100285.03
2022-12-22T19:05:54.247Z,100291.31
2022-12-22T19:08:56.148Z,100286.81
2022-12-22T19:11:58.291Z,100290.19
2022-12-22T19:15:03.273Z,100286.91
2022-12-22T19:18:05.571Z,100290.03
2022-12-22T19:21:09.160Z,100291.03
2022-12-22T19:24:11.299Z,100280.22
2022-12-22T19:27:26.156Z,100281.03
2022-12-22T19:30:28.103Z,100275.16
2022-12-22T19:33:43.075Z,100271.25
2022-12-22T19:36:44.914Z,100272.66
2022-12-22T19:39:46.957Z,100278.94
2022-12-22T19:42:49.818Z,100271.03
2022-12-22T19:45:52.222Z,100246.94
2022-12-22T19:48:54.121Z,100251.38
2022-12-22T19:51:56.555Z,100256.72
2022-12-22T19:54:58.532Z,100258.28
2022-12-22T19:58:00.407Z,100251.66
2022-12-22T20:01:02.450Z,100248.38
2022-12-22T20:04:04.412Z,100242.12
2022-12-22T20:07:08.668Z,100247.47
2022-12-22T20:10:10.591Z,100265.81
2022-12-22T20:13:16.630Z,100275.75
2022-12-22T20:16:18.668Z,100282.19
2022-12-22T20:19:20.822Z,100276.56
2022-12-22T20:22:22.753Z,100269.81
2022-12-22T20:25:26.102Z,100266.72
2022-12-22T20:28:29.032Z,100262.72
2022-12-22T20:31:30.930Z,100264.25
2022-12-22T20:34:33.089Z,100275.09
2022-12-22T20:37:35.029Z,100260.00
2022-12-22T20:40:36.950Z,100260.19
2022-12-22T20:43:39.147Z,100248.91
2022-12-22T20:46:41.152Z,100239.91
2022-12-22T20:49:43.329Z,100239.59
2022-12-22T20:52:45.244Z,100230.69
2022-12-22T20:55:47.482Z,100236.87
2022-12-22T20:58:49.553Z,100224.53
2022-12-22T21:01:52.089Z,100223.34
2022-12-22T21:04:54.129Z,100212.50
2022-12-22T21:07:56.015Z,100215.28
2022-12-22T21:10:58.004Z,100221.31
2022-12-22T21:13:59.852Z,100211.72
2022-12-22T21:17:01.875Z,100209.31
2022-12-22T21:20:03.879Z,100220.03
2022-12-22T21:23:05.999Z,100221.41
2022-12-22T21:26:26.361Z,100218.03
2022-12-22T21:29:28.371Z,100218.06
2022-12-22T21:32:30.305Z,100209.81
2022-12-22T21:35:34.883Z,100216.28
2022-12-22T21:38:36.807Z,100229.06
2022-12-22T21:42:14.186Z,100216.47
2022-12-22T21:45:17.060Z,100207.75
2022-12-22T21:48:20.188Z,100198.47
2022-12-22T21:51:22.070Z,100200.59
2022-12-22T21:54:24.151Z,100204.28
2022-12-22T21:57:27.870Z,100208.25
2022-12-22T22:00:30.174Z,100203.16
2022-12-22T22:03:33.728Z,100202.47
2022-12-22T22:06:35.682Z,100201.81
2022-12-22T22:09:37.561Z,100196.53
2022-12-22T22:12:40.030Z,100190.00
2022-12-22T22:15:42.227Z,100195.28
2022-12-22T22:18:44.648Z,100201.62
2022-12-22T22:21:46.615Z,100188.53
2022-12-22T22:24:48.537Z,100193.84
2022-12-22T22:27:50.531Z,100191.47
2022-12-22T22:30:52.530Z,100195.97
2022-12-22T22:33:54.427Z,100197.72
2022-12-22T22:36:56.282Z,100188.66
2022-12-22T22:39:58.203Z,100188.28
2022-12-22T22:43:00.134Z,100176.88
2022-12-22T22:46:02.079Z,100193.34
2022-12-22T22:49:04.135Z,100185.72
2022-12-22T22:52:06.080Z,100182.19
2022-12-22T22:55:08.704Z,100171.69
2022-12-22T22:58:11.615Z,100170.41
2022-12-22T23:01:13.571Z,100167.75
2022-12-22T23:04:15.501Z,100163.84
2022-12-22T23:07:17.468Z,100166.94
2022-12-22T23:10:19.361Z,100170.03
2022-12-22T23:13:21.369Z,100174.97
2022-12-22T23:16:24.490Z,100173.66
2022-12-22T23:19:26.533Z,100170.19
2022-12-22T23:22:28.441Z,100168.91
2022-12-22T23:25:30.291Z,100167.59
2022-12-22T23:28:32.764Z,100169.56
2022-12-22T23:31:34.743Z,100152.53
2022-12-22T23:34:36.771Z,100155.69
2022-12-22T23:37:38.748Z,100149.94
2022-12-22T23:40:56.224Z,100150.31
2022-12-22T23:43:58.415Z,100150.16
2022-12-22T23:47:00.305Z,100160.81
2022-12-22T23:50:02.491Z,100158.13
2022-12-22T23:53:04.552Z,100154.72
2022-12-22T23:56:06.558Z,100158.00
2022-12-22T23:59:08.769Z,100162.66
